createdAt,value
2023-12-15T00:00:40.021Z,7.90
2023-12-15T00:03:28.646Z,9.20
2023-12-15T00:05:59.297Z,9.80
2023-12-15T00:08:27.793Z,8.10
2023-12-15T00:10:56.276Z,8.50
2023-12-15T00:13:25.736Z,9.30
2023-12-15T00:15:55.139Z,8.70
2023-12-15T00:18:23.691Z,8.70
2023-12-15T00:20:52.420Z,8.30
2023-12-15T00:23:21.640Z,7.70
2023-12-15T00:25:50.354Z,7.90
2023-12-15T00:28:18.973Z,6.00
2023-12-15T00:30:47.503Z,6.40
2023-12-15T00:33:16.203Z,7.80
2023-12-15T00:35:47.635Z,6.20
2023-12-15T00:38:16.133Z,6.80
2023-12-15T00:40:44.671Z,6.50
2023-12-15T00:43:15.116Z,6.60
2023-12-15T00:45:43.613Z,7.20
2023-12-15T00:48:12.226Z,6.20
2023-12-15T00:50:40.954Z,7.30
2023-12-15T00:53:09.465Z,7.30
2023-12-15T00:55:38.732Z,8.10
2023-12-15T00:58:07.319Z,8.90
2023-12-15T01:00:35.866Z,8.60
2023-12-15T01:03:04.611Z,7.60
2023-12-15T01:05:33.321Z,6.60
2023-12-15T01:08:01.849Z,6.80
2023-12-15T01:10:30.449Z,5.60
2023-12-15T01:12:59.039Z,5.90
2023-12-15T01:15:27.619Z,4.80
2023-12-15T01:17:57.717Z,4.10
2023-12-15T01:20:26.718Z,4.70
2023-12-15T01:22:55.332Z,4.70
2023-12-15T01:25:23.908Z,4.20
2023-12-15T01:27:52.493Z,6.00
2023-12-15T01:30:21.130Z,5.20
2023-12-15T01:32:49.711Z,4.70
2023-12-15T01:35:18.290Z,4.30
2023-12-15T01:37:46.828Z,4.90
2023-12-15T01:40:15.824Z,5.70
2023-12-15T01:42:44.300Z,5.40
2023-12-15T01:45:12.796Z,4.80
2023-12-15T01:47:41.871Z,4.60
2023-12-15T01:50:10.824Z,4.50
2023-12-15T01:52:39.837Z,4.20
2023-12-15T01:55:08.765Z,3.60
2023-12-15T01:57:37.597Z,4.10
2023-12-15T02:00:08.866Z,4.80
2023-12-15T02:02:40.484Z,4.10
2023-12-15T02:05:09.508Z,4.70
2023-12-15T02:07:38.525Z,4.40
2023-12-15T02:10:07.737Z,5.40
2023-12-15T02:12:36.220Z,4.60
2023-12-15T02:15:05.314Z,4.80
2023-12-15T02:17:34.012Z,5.00
2023-12-15T02:20:02.767Z,6.10
2023-12-15T02:22:31.383Z,7.00
2023-12-15T02:25:00.003Z,6.50
2023-12-15T02:27:28.598Z,6.10
2023-12-15T02:29:57.002Z,7.10
2023-12-15T02:32:25.449Z,11.30
2023-12-15T02:34:54.132Z,8.60
2023-12-15T02:37:22.581Z,7.50
2023-12-15T02:39:51.069Z,7.50
2023-12-15T02:42:19.547Z,9.00
2023-12-15T02:44:48.037Z,7.90
2023-12-15T02:47:16.556Z,8.80
2023-12-15T02:49:45.097Z,7.30
2023-12-15T02:52:13.681Z,7.70
2023-12-15T02:54:42.061Z,6.80
2023-12-15T02:57:10.538Z,7.90
2023-12-15T02:59:41.281Z,7.30
2023-12-15T03:02:09.900Z,7.70
2023-12-15T03:04:38.443Z,8.00
2023-12-15T03:07:07.031Z,6.30
2023-12-15T03:09:35.509Z,7.10
2023-12-15T03:12:04.413Z,7.60
2023-12-15T03:14:32.942Z,7.80
2023-12-15T03:17:01.880Z,8.10
2023-12-15T03:19:30.486Z,8.00
2023-12-15T03:21:59.053Z,6.60
2023-12-15T03:24:27.753Z,8.50
2023-12-15T03:26:56.121Z,6.90
2023-12-15T03:29:24.565Z,7.50
2023-12-15T03:31:53.130Z,8.40
2023-12-15T03:34:21.503Z,6.20
2023-12-15T03:36:49.942Z,7.80
2023-12-15T03:39:18.424Z,8.30
2023-12-15T03:41:46.905Z,6.40
2023-12-15T03:44:15.376Z,7.50
2023-12-15T03:46:43.878Z,6.00
2023-12-15T03:49:12.530Z,6.10
2023-12-15T03:51:41.243Z,7.60
2023-12-15T03:54:09.730Z,6.50
2023-12-15T03:56:38.209Z,5.40
2023-12-15T03:59:07.352Z,6.90
2023-12-15T04:01:35.785Z,6.10
2023-12-15T04:04:04.691Z,5.30
2023-12-15T04:06:33.187Z,5.10
2023-12-15T04:09:01.543Z,4.80
2023-12-15T04:11:30.082Z,5.50
2023-12-15T04:13:58.948Z,5.50
2023-12-15T04:16:27.509Z,5.40
2023-12-15T04:18:56.350Z,5.80
2023-12-15T04:21:24.880Z,7.30
2023-12-15T04:23:53.677Z,5.70
2023-12-15T04:26:22.268Z,5.60
2023-12-15T04:28:50.742Z,5.50
2023-12-15T04:31:19.214Z,6.30
2023-12-15T04:33:47.615Z,7.20
2023-12-15T04:36:20.752Z,7.30
2023-12-15T04:38:49.262Z,5.90
2023-12-15T04:41:21.955Z,6.40
2023-12-15T04:43:50.761Z,14.60
2023-12-15T04:46:27.514Z,10.70
2023-12-15T04:48:58.676Z,7.90
2023-12-15T04:51:27.770Z,7.80
2023-12-15T04:53:56.340Z,6.30
2023-12-15T04:56:26.946Z,13.70
2023-12-15T04:58:55.696Z,14.50
2023-12-15T05:01:26.839Z,6.90
2023-12-15T05:03:55.545Z,6.60
2023-12-15T05:06:24.704Z,6.60
2023-12-15T05:08:53.731Z,4.50
2023-12-15T05:11:22.468Z,6.60
2023-12-15T05:13:50.957Z,5.60
2023-12-15T05:16:19.430Z,6.70
2023-12-15T05:18:47.915Z,6.00
2023-12-15T05:21:16.514Z,10.10
2023-12-15T05:23:45.000Z,10.10
2023-12-15T05:26:14.022Z,5.50
2023-12-15T05:28:42.571Z,6.50
2023-12-15T05:31:10.949Z,5.10
2023-12-15T05:33:39.545Z,5.90
2023-12-15T05:36:10.154Z,5.90
2023-12-15T05:38:40.987Z,6.40
2023-12-15T05:41:09.421Z,7.20
2023-12-15T05:43:38.068Z,6.30
2023-12-15T05:46:06.858Z,7.80
2023-12-15T05:48:35.601Z,8.20
2023-12-15T05:51:05.925Z,7.50
2023-12-15T05:53:42.411Z,8.30
2023-12-15T05:56:16.501Z,9.50
2023-12-15T05:58:45.600Z,9.50
2023-12-15T06:01:14.183Z,7.10
2023-12-15T06:03:43.312Z,7.20
2023-12-15T06:06:15.484Z,8.10
2023-12-15T06:08:44.296Z,9.50
2023-12-15T06:11:12.903Z,6.40
2023-12-15T06:13:43.344Z,7.10
2023-12-15T06:16:21.732Z,7.20
2023-12-15T06:18:50.596Z,6.80
2023-12-15T06:21:23.808Z,11.80
2023-12-15T06:23:52.947Z,6.80
2023-12-15T06:26:24.497Z,6.40
2023-12-15T06:28:57.415Z,8.50
2023-12-15T06:31:28.848Z,6.20
2023-12-15T06:33:57.728Z,6.50
2023-12-15T06:36:30.791Z,6.60
2023-12-15T06:38:59.767Z,7.90
2023-12-15T06:41:28.827Z,6.30
2023-12-15T06:43:57.401Z,12.10
2023-12-15T06:46:26.543Z,6.60
2023-12-15T06:48:55.220Z,7.50
2023-12-15T06:51:23.778Z,8.50
2023-12-15T06:53:52.094Z,7.70
2023-12-15T06:56:20.469Z,8.30
2023-12-15T06:58:48.897Z,7.40
2023-12-15T07:01:17.343Z,8.60
2023-12-15T07:03:45.964Z,11.60
2023-12-15T07:06:14.555Z,12.10
2023-12-15T07:08:43.520Z,13.20
2023-12-15T07:11:12.220Z,12.90
2023-12-15T07:13:40.978Z,14.60
2023-12-15T07:16:11.591Z,18.60
2023-12-15T07:18:41.086Z,17.50
2023-12-15T07:21:09.664Z,14.90
2023-12-15T07:23:39.196Z,21.70
2023-12-15T07:26:07.739Z,17.20
2023-12-15T07:28:37.210Z,18.10
2023-12-15T07:31:08.872Z,17.40
2023-12-15T07:33:38.852Z,25.10
2023-12-15T07:36:08.353Z,16.70
2023-12-15T07:38:36.998Z,14.90
2023-12-15T07:41:07.726Z,14.50
2023-12-15T07:43:39.297Z,11.30
2023-12-15T07:46:18.426Z,7.40
2023-12-15T07:48:47.297Z,6.90
2023-12-15T07:51:21.912Z,6.10
2023-12-15T07:53:50.392Z,8.20
2023-12-15T07:56:22.238Z,13.90
2023-12-15T07:58:52.154Z,15.50
2023-12-15T08:01:21.968Z,20.00
2023-12-15T08:03:51.534Z,16.80
2023-12-15T08:06:20.637Z,19.80
2023-12-15T08:08:50.276Z,19.60
2023-12-15T08:11:18.812Z,13.50
2023-12-15T08:13:47.976Z,11.70
2023-12-15T08:16:16.639Z,15.50
2023-12-15T08:18:45.577Z,9.60
2023-12-15T08:21:14.357Z,11.30
2023-12-15T08:23:43.629Z,26.10
2023-12-15T08:26:22.257Z,17.80
2023-12-15T08:28:51.265Z,15.20
2023-12-15T08:31:19.643Z,18.30
2023-12-15T08:33:48.313Z,12.90
2023-12-15T08:36:17.006Z,15.90
2023-12-15T08:38:45.491Z,15.40
2023-12-15T08:41:14.823Z,14.70
2023-12-15T08:43:43.475Z,19.50
2023-12-15T08:46:11.962Z,16.50
2023-12-15T08:48:40.664Z,14.30
2023-12-15T08:51:09.389Z,15.20
2023-12-15T08:53:38.077Z,16.40
2023-12-15T08:56:06.662Z,19.40
2023-12-15T08:58:35.188Z,19.40
2023-12-15T09:01:05.407Z,24.10
2023-12-15T09:03:34.239Z,14.10
2023-12-15T09:08:34.472Z,18.00
2023-12-15T09:11:03.200Z,16.40
2023-12-15T09:13:31.921Z,15.90
2023-12-15T09:16:00.498Z,8.70
2023-12-15T09:18:29.363Z,11.00
2023-12-15T09:20:58.353Z,11.20
2023-12-15T09:23:26.906Z,6.90
2023-12-15T09:25:55.454Z,7.80
2023-12-15T09:28:23.833Z,7.40
2023-12-15T09:30:52.424Z,8.20
2023-12-15T09:33:21.402Z,8.60
2023-12-15T09:35:55.175Z,8.70
2023-12-15T09:38:23.647Z,11.80
2023-12-15T09:40:52.192Z,6.90
2023-12-15T09:43:20.561Z,14.40
2023-12-15T09:45:49.175Z,9.30
2023-12-15T09:48:20.835Z,20.30
2023-12-15T09:50:55.502Z,8.00
2023-12-15T09:53:25.535Z,6.70
2023-12-15T09:55:54.813Z,10.60
2023-12-15T09:58:23.336Z,5.80
2023-12-15T10:00:52.449Z,5.60
2023-12-15T10:03:21.075Z,10.30
2023-12-15T10:05:51.760Z,3.80
2023-12-15T10:08:25.686Z,5.10
2023-12-15T10:10:54.762Z,4.30
2023-12-15T10:13:23.176Z,3.00
2023-12-15T10:15:54.773Z,2.10
2023-12-15T10:18:32.224Z,5.20
2023-12-15T10:21:08.153Z,5.00
2023-12-15T10:23:36.858Z,3.60
2023-12-15T10:26:06.789Z,4.50
2023-12-15T10:28:40.350Z,8.20
2023-12-15T10:31:10.075Z,3.50
2023-12-15T10:33:38.648Z,4.30
2023-12-15T10:36:08.909Z,5.50
2023-12-15T10:38:37.531Z,6.20
2023-12-15T10:41:08.916Z,5.10
2023-12-15T10:43:39.770Z,5.80
2023-12-15T10:46:10.813Z,7.00
2023-12-15T10:48:41.477Z,4.70
2023-12-15T10:51:11.212Z,7.40
2023-12-15T10:53:42.394Z,4.30
2023-12-15T10:56:11.149Z,3.90
2023-12-15T10:58:40.473Z,5.40
2023-12-15T11:01:10.992Z,5.70
2023-12-15T11:03:40.659Z,4.40
2023-12-15T11:06:10.435Z,5.10
2023-12-15T11:08:39.331Z,6.60
2023-12-15T11:11:11.560Z,5.30
2023-12-15T11:14:03.011Z,5.20
2023-12-15T11:16:37.155Z,6.30
2023-12-15T11:19:06.017Z,6.40
2023-12-15T11:21:35.568Z,4.30
2023-12-15T11:24:06.454Z,5.10
2023-12-15T11:26:39.301Z,5.00
2023-12-15T11:29:12.709Z,5.30
2023-12-15T11:31:43.981Z,7.60
2023-12-15T11:34:38.662Z,5.60
2023-12-15T11:37:08.085Z,6.50
2023-12-15T11:39:37.713Z,6.60
2023-12-15T11:42:06.788Z,5.80
2023-12-15T11:44:35.659Z,13.50
2023-12-15T11:47:06.906Z,5.70
2023-12-15T11:49:35.420Z,5.30
2023-12-15T11:52:09.853Z,6.10
2023-12-15T11:54:39.447Z,5.60
2023-12-15T11:57:08.035Z,7.50
2023-12-15T11:59:39.537Z,10.50
2023-12-15T12:02:08.195Z,7.50
2023-12-15T12:04:37.125Z,6.80
2023-12-15T12:07:05.951Z,5.60
2023-12-15T12:09:34.538Z,6.20
2023-12-15T12:12:03.091Z,5.40
2023-12-15T12:14:32.061Z,8.20
2023-12-15T12:17:00.628Z,7.90
2023-12-15T12:19:33.071Z,6.60
2023-12-15T12:22:01.454Z,10.40
2023-12-15T12:24:30.765Z,15.10
2023-12-15T12:27:00.177Z,7.60
2023-12-15T12:29:32.674Z,8.10
2023-12-15T12:32:01.175Z,9.40
2023-12-15T12:34:29.752Z,10.30
2023-12-15T12:36:58.394Z,8.50
2023-12-15T12:39:28.812Z,5.80
2023-12-15T12:41:57.375Z,8.40
2023-12-15T12:44:26.855Z,8.00
2023-12-15T12:46:55.390Z,7.20
2023-12-15T12:49:24.204Z,7.40
2023-12-15T12:51:53.418Z,7.00
2023-12-15T12:54:21.852Z,8.80
2023-12-15T12:56:59.854Z,11.20
2023-12-15T12:59:29.520Z,7.40
2023-12-15T13:02:07.384Z,8.90
2023-12-15T13:04:44.455Z,7.80
2023-12-15T13:07:13.085Z,11.00
2023-12-15T13:09:41.631Z,11.00
2023-12-15T13:12:14.632Z,10.70
2023-12-15T13:14:43.352Z,8.10
2023-12-15T13:17:12.469Z,9.80
2023-12-15T13:19:41.512Z,8.20
2023-12-15T13:22:10.090Z,9.30
2023-12-15T13:24:46.702Z,10.10
2023-12-15T13:27:23.529Z,9.30
2023-12-15T13:29:52.453Z,9.50
2023-12-15T13:32:21.173Z,8.70
2023-12-15T13:34:52.165Z,9.50
2023-12-15T13:37:21.361Z,8.00
2023-12-15T13:39:49.959Z,9.50
2023-12-15T13:42:20.183Z,7.00
2023-12-15T13:44:50.288Z,7.50
2023-12-15T13:47:18.950Z,7.20
2023-12-15T13:49:47.560Z,9.90
2023-12-15T13:52:16.164Z,6.60
2023-12-15T13:54:45.754Z,11.10
2023-12-15T13:57:14.556Z,8.00
2023-12-15T13:59:43.580Z,10.50
2023-12-15T14:02:12.180Z,7.10
2023-12-15T14:04:41.205Z,12.10
2023-12-15T14:07:09.804Z,8.00
2023-12-15T14:09:39.091Z,7.70
2023-12-15T14:12:07.646Z,7.70
2023-12-15T14:14:36.148Z,10.60
2023-12-15T14:17:07.708Z,10.30
2023-12-15T14:19:38.290Z,11.60
2023-12-15T14:22:08.669Z,12.60
2023-12-15T14:24:37.563Z,11.00
2023-12-15T14:27:06.189Z,10.90
2023-12-15T14:29:34.891Z,8.20
2023-12-15T14:32:03.881Z,12.40
2023-12-15T14:34:32.568Z,12.40
2023-12-15T14:37:01.423Z,13.00
2023-12-15T14:39:29.888Z,13.20
2023-12-15T14:41:58.634Z,11.30
2023-12-15T14:44:27.187Z,10.10
2023-12-15T14:46:55.961Z,12.70
2023-12-15T14:49:24.547Z,10.80
2023-12-15T14:51:53.120Z,10.20
2023-12-15T14:54:21.605Z,10.50
2023-12-15T14:56:52.933Z,9.30
2023-12-15T14:59:21.691Z,14.40
2023-12-15T15:01:50.235Z,10.40
2023-12-15T15:04:22.811Z,11.40
2023-12-15T15:06:52.053Z,9.20
2023-12-15T15:09:24.061Z,10.00
2023-12-15T15:11:52.690Z,12.30
2023-12-15T15:14:21.381Z,12.60
2023-12-15T15:16:49.922Z,13.30
2023-12-15T15:19:18.680Z,12.80
2023-12-15T15:21:47.183Z,14.10
2023-12-15T15:24:15.789Z,13.40
2023-12-15T15:26:44.300Z,12.70
2023-12-15T15:29:13.009Z,15.60
2023-12-15T15:31:42.341Z,15.40
2023-12-15T15:34:10.871Z,12.90
2023-12-15T15:36:39.677Z,14.00
2023-12-15T15:39:08.418Z,16.80
2023-12-15T15:41:37.107Z,14.80
2023-12-15T15:44:10.993Z,13.50
2023-12-15T15:46:43.597Z,14.80
2023-12-15T15:49:12.095Z,14.00
2023-12-15T15:51:40.907Z,13.00
2023-12-15T15:54:16.354Z,13.30
2023-12-15T15:56:48.120Z,13.50
2023-12-15T15:59:16.648Z,14.70
2023-12-15T16:01:45.398Z,14.20
2023-12-15T16:04:14.154Z,15.00
2023-12-15T16:06:42.981Z,11.10
2023-12-15T16:09:11.725Z,13.30
2023-12-15T16:11:40.390Z,15.30
2023-12-15T16:14:11.499Z,13.60
2023-12-15T16:16:41.411Z,12.50
2023-12-15T16:19:10.898Z,12.70
2023-12-15T16:21:39.624Z,12.10
2023-12-15T16:24:09.972Z,13.20
2023-12-15T16:26:39.515Z,15.60
2023-12-15T16:29:09.134Z,15.10
2023-12-15T16:31:37.899Z,14.10
2023-12-15T16:34:06.829Z,12.20
2023-12-15T16:36:35.925Z,11.40
2023-12-15T16:39:04.555Z,13.20
2023-12-15T16:41:33.628Z,10.80
2023-12-15T16:44:02.322Z,11.10
2023-12-15T16:46:30.916Z,11.30
2023-12-15T16:48:59.735Z,9.60
2023-12-15T16:51:37.400Z,10.30
2023-12-15T16:54:06.422Z,9.60
2023-12-15T16:56:34.837Z,11.60
2023-12-15T16:59:03.384Z,14.20
2023-12-15T17:01:32.003Z,12.40
2023-12-15T17:04:00.563Z,13.10
2023-12-15T17:06:29.339Z,16.10
2023-12-15T17:08:57.906Z,16.70
2023-12-15T17:11:26.395Z,13.10
2023-12-15T17:13:54.981Z,12.80
2023-12-15T17:16:23.557Z,14.70
2023-12-15T17:18:52.734Z,13.00
2023-12-15T17:21:21.446Z,13.10
2023-12-15T17:23:51.796Z,12.80
2023-12-15T17:26:20.364Z,13.00
2023-12-15T17:28:50.475Z,16.20
2023-12-15T17:31:19.008Z,13.30
2023-12-15T17:33:47.805Z,12.60
2023-12-15T17:36:16.844Z,14.20
2023-12-15T17:38:45.335Z,11.90
2023-12-15T17:41:21.967Z,15.20
2023-12-15T17:46:26.415Z,11.50
2023-12-15T17:48:55.023Z,12.90
2023-12-15T17:51:23.867Z,9.90
2023-12-15T17:53:52.511Z,10.60
2023-12-15T17:56:21.095Z,10.70
2023-12-15T17:58:49.485Z,12.50
2023-12-15T18:01:18.802Z,13.70
2023-12-15T18:03:47.450Z,11.50
2023-12-15T18:06:16.093Z,10.70
2023-12-15T18:08:46.316Z,9.80
2023-12-15T18:11:25.942Z,10.60
2023-12-15T18:13:56.939Z,8.60
2023-12-15T18:16:25.939Z,11.10
2023-12-15T18:18:56.551Z,9.90
2023-12-15T18:21:27.457Z,7.10
2023-12-15T18:23:56.406Z,10.80
2023-12-15T18:26:24.783Z,10.50
2023-12-15T18:28:53.391Z,7.50
2023-12-15T18:31:23.168Z,6.20
2023-12-15T18:33:53.620Z,6.70
2023-12-15T18:36:22.198Z,9.30
2023-12-15T18:38:50.579Z,9.50
2023-12-15T18:41:19.262Z,9.70
2023-12-15T18:43:47.961Z,10.00
2023-12-15T18:46:17.810Z,9.70
2023-12-15T18:48:46.622Z,11.30
2023-12-15T18:51:19.646Z,9.00
2023-12-15T18:53:48.736Z,8.50
2023-12-15T18:56:19.923Z,8.30
2023-12-15T18:58:50.149Z,9.80
2023-12-15T19:01:20.622Z,9.90
2023-12-15T19:03:49.480Z,7.30
2023-12-15T19:06:24.403Z,8.70
2023-12-15T19:08:53.772Z,7.70
2023-12-15T19:11:31.239Z,7.90
2023-12-15T19:14:00.171Z,6.80
2023-12-15T19:16:31.569Z,6.90
2023-12-15T19:19:00.422Z,6.00
2023-12-15T19:21:29.280Z,8.60
2023-12-15T19:23:57.971Z,7.20
2023-12-15T19:26:28.542Z,9.50
2023-12-15T19:28:59.024Z,8.50
2023-12-15T19:31:28.282Z,8.10
2023-12-15T19:33:57.144Z,6.90
2023-12-15T19:36:25.782Z,9.20
2023-12-15T19:38:54.205Z,8.00
2023-12-15T19:41:23.583Z,8.70
2023-12-15T19:43:52.307Z,10.00
2023-12-15T19:46:26.389Z,8.90
2023-12-15T19:48:54.938Z,9.00
2023-12-15T19:51:24.091Z,8.50
2023-12-15T19:53:52.757Z,7.90
2023-12-15T19:56:27.473Z,8.30
2023-12-15T19:58:57.515Z,8.50
2023-12-15T20:01:28.917Z,7.30
2023-12-15T20:03:58.934Z,7.20
2023-12-15T20:06:32.218Z,5.60
2023-12-15T20:09:01.299Z,7.00
2023-12-15T20:11:29.888Z,6.40
2023-12-15T20:13:58.340Z,7.20
2023-12-15T20:16:26.712Z,6.50
2023-12-15T20:18:55.284Z,7.30
2023-12-15T20:21:24.187Z,9.00
2023-12-15T20:23:52.688Z,10.00
2023-12-15T20:26:21.272Z,9.30
2023-12-15T20:28:49.740Z,7.30
2023-12-15T20:31:18.412Z,13.00
2023-12-15T20:33:47.305Z,9.10
2023-12-15T20:36:20.354Z,8.60
2023-12-15T20:38:49.136Z,8.60
2023-12-15T20:41:20.727Z,6.90
2023-12-15T20:43:50.516Z,7.00
2023-12-15T20:46:19.584Z,8.30
2023-12-15T20:48:49.319Z,6.10
2023-12-15T20:51:23.235Z,7.10
2023-12-15T20:53:52.303Z,9.00
2023-12-15T20:56:27.558Z,8.60
2023-12-15T20:58:56.704Z,6.60
2023-12-15T21:01:25.956Z,7.00
2023-12-15T21:03:55.367Z,6.90
2023-12-15T21:06:25.504Z,7.10
2023-12-15T21:08:54.100Z,8.10
2023-12-15T21:11:23.173Z,7.70
2023-12-15T21:13:57.028Z,6.90
2023-12-15T21:16:28.465Z,10.00
2023-12-15T21:18:57.927Z,7.90
2023-12-15T21:21:28.165Z,6.90
2023-12-15T21:23:57.316Z,9.10
2023-12-15T21:26:25.687Z,6.60
2023-12-15T21:28:57.018Z,6.60
2023-12-15T21:31:26.234Z,8.40
2023-12-15T21:33:56.576Z,6.30
2023-12-15T21:36:25.143Z,8.70
2023-12-15T21:38:53.637Z,8.70
2023-12-15T21:41:22.315Z,11.40
2023-12-15T21:43:53.047Z,7.10
2023-12-15T21:46:21.607Z,7.70
2023-12-15T21:48:50.303Z,7.70
2023-12-15T21:51:21.488Z,11.60
2023-12-15T21:53:49.841Z,7.90
2023-12-15T21:56:18.324Z,6.40
2023-12-15T21:58:46.710Z,7.20
2023-12-15T22:01:16.771Z,5.50
2023-12-15T22:03:50.156Z,8.60
2023-12-15T22:06:23.320Z,9.20
2023-12-15T22:08:52.278Z,8.80
2023-12-15T22:11:20.914Z,9.30
2023-12-15T22:13:49.424Z,8.20
2023-12-15T22:16:18.020Z,8.00
2023-12-15T22:18:46.984Z,7.50
2023-12-15T22:21:15.544Z,8.10
2023-12-15T22:23:45.114Z,6.80
2023-12-15T22:26:14.514Z,7.60
2023-12-15T22:28:43.115Z,6.40
2023-12-15T22:31:11.656Z,8.10
2023-12-15T22:33:40.599Z,10.10
2023-12-15T22:36:09.407Z,8.20
2023-12-15T22:38:40.240Z,7.40
2023-12-15T22:41:13.794Z,6.80
2023-12-15T22:43:45.610Z,7.60
2023-12-15T22:46:14.117Z,6.00
2023-12-15T22:48:43.325Z,7.60
2023-12-15T22:51:12.002Z,6.90
2023-12-15T22:53:40.551Z,7.90
2023-12-15T22:56:12.721Z,8.60
2023-12-15T22:58:41.417Z,7.70
2023-12-15T23:01:11.056Z,8.70
2023-12-15T23:03:40.123Z,8.10
2023-12-15T23:06:09.199Z,6.20
2023-12-15T23:08:38.061Z,8.10
2023-12-15T23:11:06.794Z,7.00
2023-12-15T23:13:35.993Z,5.70
2023-12-15T23:16:05.016Z,6.30
2023-12-15T23:18:34.040Z,6.00
2023-12-15T23:21:12.339Z,6.30
2023-12-15T23:23:44.573Z,4.90
2023-12-15T23:26:13.070Z,6.20
2023-12-15T23:28:41.650Z,6.90
2023-12-15T23:31:10.920Z,6.00
2023-12-15T23:33:39.571Z,6.00
2023-12-15T23:36:14.760Z,4.70
2023-12-15T23:38:43.465Z,4.40
2023-12-15T23:41:12.481Z,4.10
2023-12-15T23:43:40.927Z,5.40
2023-12-15T23:46:09.649Z,5.40
2023-12-15T23:48:38.538Z,3.70
2023-12-15T23:51:08.679Z,3.60
2023-12-15T23:53:37.205Z,3.50
2023-12-15T23:56:06.228Z,4.80
2023-12-15T23:58:34.681Z,4.30
